Time;durP1;ratioP1;P1;durP2;ratioP2;P2;SDS_P1;SDS_P2;PMS_P1;PMS_P2;Temp;Humidity;BMP_temperature;BMP_pressure;BME280_temperature;BME280_humidity;BME280_pressure;Samples;Min_cycle;Max_cycle;Signal;HPM_P1;HPM_P2
2022/10/01 00:01:15;;;;;;;5.43;3.20;;;10.70;99.90;;;;;;4993739;28;20054;-72
2022/10/01 00:03:41;;;;;;;4.57;3.25;;;10.70;99.90;;;;;;4991816;28;20031;-72
2022/10/01 00:06:18;;;;;;;5.05;2.90;;;10.60;99.90;;;;;;4992440;28;20361;-71
2022/10/01 00:08:47;;;;;;;4.70;2.88;;;10.60;99.90;;;;;;4993047;28;20030;-72
2022/10/01 00:11:22;;;;;;;4.57;3.00;;;10.60;99.90;;;;;;4993671;28;20038;-72
2022/10/01 00:13:49;;;;;;;5.40;3.20;;;10.60;99.90;;;;;;4991705;28;20034;-75
2022/10/01 00:16:20;;;;;;;5.43;3.20;;;10.60;99.90;;;;;;4993562;28;20025;-75
2022/10/01 00:18:48;;;;;;;4.18;3.13;;;10.60;99.90;;;;;;4993148;28;20022;-75
2022/10/01 00:21:16;;;;;;;5.50;3.35;;;10.50;99.90;;;;;;4993278;28;20550;-75
2022/10/01 00:23:42;;;;;;;4.85;3.33;;;10.60;99.90;;;;;;4992705;28;20500;-75
2022/10/01 00:26:16;;;;;;;7.90;3.70;;;10.50;99.90;;;;;;4993327;28;20046;-74
2022/10/01 00:28:44;;;;;;;4.13;3.05;;;10.50;99.90;;;;;;4992837;28;20026;-75
2022/10/01 00:31:11;;;;;;;4.47;3.20;;;10.50;99.90;;;;;;4991969;28;20472;-74
2022/10/01 00:33:37;;;;;;;4.65;3.30;;;10.50;99.90;;;;;;4991948;28;20368;-74
2022/10/01 00:36:04;;;;;;;6.68;3.13;;;10.50;99.90;;;;;;4975297;28;20384;-75
2022/10/01 00:38:30;;;;;;;5.25;3.45;;;10.50;99.90;;;;;;4991867;28;20057;-75
2022/10/01 00:40:57;;;;;;;5.10;2.75;;;10.50;99.90;;;;;;4992823;28;20391;-75
2022/10/01 00:43:26;;;;;;;4.32;3.10;;;10.50;99.90;;;;;;4991912;28;20398;-74
2022/10/01 00:45:56;;;;;;;4.88;3.00;;;10.50;99.90;;;;;;4992740;28;20073;-75
2022/10/01 00:48:23;;;;;;;5.68;3.10;;;10.50;99.90;;;;;;4993361;28;20375;-74
2022/10/01 00:50:49;;;;;;;4.00;2.70;;;10.50;99.90;;;;;;4990997;28;20046;-75
2022/10/01 00:53:16;;;;;;;5.57;2.83;;;10.50;99.90;;;;;;4991868;28;20382;-74
2022/10/01 00:55:54;;;;;;;5.00;2.92;;;10.50;99.90;;;;;;4991828;28;20022;-74
2022/10/01 00:58:21;;;;;;;4.65;3.45;;;10.50;99.90;;;;;;4993128;28;20026;-74
2022/10/01 01:00:47;;;;;;;5.07;2.88;;;10.50;99.90;;;;;;4991256;28;20031;-75
2022/10/01 01:03:14;;;;;;;3.78;2.50;;;10.50;99.90;;;;;;4992688;28;20066;-74
2022/10/01 01:05:40;;;;;;;3.97;2.70;;;10.50;99.90;;;;;;4992978;28;20022;-74
2022/10/01 01:08:07;;;;;;;3.97;2.90;;;10.60;99.90;;;;;;4992464;28;20415;-75
2022/10/01 01:10:44;;;;;;;3.65;2.45;;;10.50;99.90;;;;;;4993082;28;20041;-74
2022/10/01 01:13:31;;;;;;;4.00;2.42;;;10.60;99.90;;;;;;4996481;28;20399;-74
2022/10/01 01:16:14;;;;;;;5.55;2.88;;;10.50;99.90;;;;;;4996320;28;20031;-75
2022/10/01 01:18:39;;;;;;;4.32;2.45;;;10.60;99.90;;;;;;4995467;28;20495;-74
2022/10/01 01:21:30;;;;;;;4.07;2.47;;;10.60;99.90;;;;;;4995859;28;20026;-74
2022/10/01 01:24:22;;;;;;;6.22;2.33;;;10.60;99.90;;;;;;4978592;28;20034;-75
2022/10/01 01:26:57;;;;;;;3.42;2.42;;;10.60;99.90;;;;;;4994898;28;20022;-75
2022/10/01 01:29:42;;;;;;;2.50;2.00;;;10.60;99.90;;;;;;4979227;28;20388;-75
2022/10/01 01:32:17;;;;;;;4.63;2.35;;;10.60;99.90;;;;;;4995646;28;20361;-75
2022/10/01 01:34:47;;;;;;;3.38;2.20;;;10.60;99.90;;;;;;4995122;28;20065;-75
2022/10/01 01:37:16;;;;;;;2.90;2.10;;;10.60;99.90;;;;;;4996419;28;20069;-72
2022/10/01 01:39:49;;;;;;;3.13;2.20;;;10.60;99.90;;;;;;4996387;28;20026;-72
2022/10/01 01:42:24;;;;;;;2.95;2.28;;;10.60;99.90;;;;;;4995004;28;20038;-72
2022/10/01 01:44:53;;;;;;;4.43;2.30;;;10.60;99.90;;;;;;4995624;28;20037;-72
2022/10/01 01:47:22;;;;;;;3.65;2.13;;;10.70;99.90;;;;;;4995085;28;20031;-72
2022/10/01 01:49:49;;;;;;;4.90;2.03;;;10.70;99.90;;;;;;4994164;28;20050;-72
2022/10/01 01:52:16;;;;;;;2.65;2.00;;;10.70;99.90;;;;;;4994750;28;20419;-72
2022/10/01 01:54:47;;;;;;;2.83;2.28;;;10.70;99.90;;;;;;4994843;28;20034;-72
2022/10/01 01:57:13;;;;;;;5.45;2.17;;;10.70;99.90;;;;;;4995750;28;20498;-72
2022/10/01 01:59:40;;;;;;;4.82;2.25;;;10.70;99.90;;;;;;4994703;28;20045;-72
2022/10/01 02:02:06;;;;;;;6.93;2.33;;;10.70;99.90;;;;;;4994163;28;20030;-71
2022/10/01 02:04:48;;;;;;;3.30;2.05;;;10.70;99.90;;;;;;4994577;28;20092;-72
2022/10/01 02:07:52;;;;;;;2.80;2.05;;;10.70;99.90;;;;;;4995868;28;20033;-75
2022/10/01 02:10:35;;;;;;;3.30;1.95;;;10.70;99.90;;;;;;4994184;28;20030;-74
2022/10/01 02:13:31;;;;;;;3.17;2.17;;;10.70;99.90;;;;;;4995239;28;20042;-74
2022/10/01 02:16:17;;;;;;;3.35;1.92;;;10.70;99.90;;;;;;4977713;28;20034;-75
2022/10/01 02:18:52;;;;;;;2.13;1.73;;;10.70;99.90;;;;;;4994508;28;20081;-75
2022/10/01 02:21:20;;;;;;;3.47;1.90;;;10.70;99.90;;;;;;4977536;28;20030;-75
2022/10/01 02:23:56;;;;;;;6.65;1.67;;;10.70;99.90;;;;;;4977625;28;20053;-74
2022/10/01 02:26:24;;;;;;;4.30;1.90;;;10.70;99.90;;;;;;4994369;28;20064;-75
2022/10/01 02:28:55;;;;;;;2.00;1.77;;;10.70;99.90;;;;;;4994853;28;20101;-75
2022/10/01 02:31:22;;;;;;;2.90;1.85;;;10.70;99.90;;;;;;4995532;28;20022;-75
2022/10/01 02:33:51;;;;;;;2.42;1.80;;;10.70;99.90;;;;;;4995309;28;20352;-78
2022/10/01 02:36:18;;;;;;;3.25;1.70;;;10.70;99.90;;;;;;4993979;28;20379;-74
2022/10/01 02:38:45;;;;;;;3.72;1.60;;;10.80;99.90;;;;;;4993913;28;20026;-75
2022/10/01 02:41:14;;;;;;;2.03;1.67;;;10.80;99.90;;;;;;4993398;28;20077;-75
2022/10/01 02:43:52;;;;;;;3.50;1.50;;;10.80;99.90;;;;;;4993871;28;20038;-75
2022/10/01 02:46:40;;;;;;;2.05;1.50;;;10.80;99.90;;;;;;4994063;28;20058;-75
2022/10/01 02:49:07;;;;;;;2.17;1.50;;;10.90;99.90;;;;;;4993152;28;20081;-75
2022/10/01 02:51:43;;;;;;;2.15;1.30;;;10.90;99.90;;;;;;4995119;28;20034;-74
2022/10/01 02:54:50;;;;;;;2.50;1.23;;;10.90;99.90;;;;;;4994771;28;20511;-75
2022/10/01 02:57:23;;;;;;;1.40;1.13;;;11.00;99.90;;;;;;4962274;28;20042;-74
2022/10/01 02:59:50;;;;;;;3.33;1.38;;;11.10;99.90;;;;;;4994978;28;20022;-74
2022/10/01 03:02:16;;;;;;;1.90;1.27;;;11.10;99.90;;;;;;4994739;28;20057;-75
2022/10/01 03:04:41;;;;;;;1.52;1.30;;;11.10;99.90;;;;;;4993413;28;20062;-75
2022/10/01 03:07:07;;;;;;;1.42;1.02;;;11.10;99.90;;;;;;4994159;28;20034;-74
2022/10/01 03:09:35;;;;;;;1.15;1.05;;;11.10;99.90;;;;;;4994707;28;20085;-74
2022/10/01 03:12:01;;;;;;;2.72;1.10;;;11.20;99.90;;;;;;4992808;28;20397;-74
2022/10/01 03:14:27;;;;;;;4.53;1.00;;;11.20;99.90;;;;;;4994268;28;20464;-74
2022/10/01 03:16:53;;;;;;;3.88;1.20;;;11.20;99.90;;;;;;4992441;28;20037;-75
2022/10/01 03:19:19;;;;;;;2.33;1.20;;;11.20;99.90;;;;;;4994473;28;20058;-75
2022/10/01 03:21:45;;;;;;;1.23;1.10;;;11.30;99.90;;;;;;4992921;28;20035;-74
2022/10/01 03:24:11;;;;;;;1.67;1.20;;;11.30;99.90;;;;;;4993904;28;20049;-74
2022/10/01 03:26:36;;;;;;;1.83;1.23;;;11.30;99.90;;;;;;4993247;28;20479;-75
2022/10/01 03:29:03;;;;;;;1.98;1.20;;;11.30;99.90;;;;;;4992522;28;20030;-75
2022/10/01 03:31:28;;;;;;;1.65;1.25;;;11.30;99.90;;;;;;4993004;28;20060;-76
2022/10/01 03:33:56;;;;;;;1.30;0.98;;;11.30;99.90;;;;;;4992062;28;20030;-75
2022/10/01 03:36:22;;;;;;;3.55;1.30;;;11.30;99.90;;;;;;4992891;28;20376;-74
2022/10/01 03:38:47;;;;;;;2.50;1.17;;;11.40;99.90;;;;;;4994028;28;20030;-74
2022/10/01 03:41:13;;;;;;;2.40;1.10;;;11.40;99.90;;;;;;4993536;28;20030;-75
2022/10/01 03:43:38;;;;;;;1.52;1.00;;;11.40;99.90;;;;;;4993686;28;20041;-74
2022/10/01 03:46:04;;;;;;;1.88;1.10;;;11.40;99.90;;;;;;4992269;28;20530;-74
2022/10/01 03:48:30;;;;;;;2.53;1.17;;;11.40;99.90;;;;;;4994192;28;20041;-74
2022/10/01 03:50:57;;;;;;;1.92;0.90;;;11.40;99.90;;;;;;4992069;28;20050;-75
2022/10/01 03:53:25;;;;;;;3.20;1.30;;;11.40;99.90;;;;;;4993754;28;20495;-75
2022/10/01 03:55:51;;;;;;;1.52;1.13;;;11.50;99.90;;;;;;4992687;28;20058;-75
2022/10/01 03:58:17;;;;;;;1.25;1.08;;;11.50;99.90;;;;;;4991988;28;20026;-74
2022/10/01 04:00:44;;;;;;;1.83;1.00;;;11.50;99.90;;;;;;4992502;28;20427;-74
2022/10/01 04:03:10;;;;;;;2.25;1.10;;;11.50;99.90;;;;;;4991797;28;20056;-74
2022/10/01 04:05:35;;;;;;;1.90;1.10;;;11.50;99.90;;;;;;4992652;28;20034;-74
2022/10/01 04:08:01;;;;;;;1.58;0.93;;;11.50;99.90;;;;;;4993109;28;20360;-75
2022/10/01 04:10:26;;;;;;;1.98;1.02;;;11.50;99.90;;;;;;4993256;28;20373;-75
2022/10/01 04:12:54;;;;;;;4.07;1.23;;;11.50;99.90;;;;;;4993560;28;20034;-73
2022/10/01 04:15:20;;;;;;;1.20;0.80;;;11.50;99.90;;;;;;4992595;28;20125;-74
2022/10/01 04:17:47;;;;;;;0.60;0.60;;;11.60;99.90;;;;;;4992199;28;20026;-75
2022/10/01 04:20:12;;;;;;;3.25;1.15;;;11.60;99.90;;;;;;4991707;28;20030;-74
2022/10/01 04:22:39;;;;;;;1.63;1.00;;;11.60;99.90;;;;;;4993109;28;20037;-74
2022/10/01 04:25:09;;;;;;;2.55;1.00;;;11.60;99.90;;;;;;4991610;28;20034;-75
2022/10/01 04:27:36;;;;;;;1.25;0.93;;;11.60;99.90;;;;;;4992413;28;20379;-75
2022/10/01 04:30:02;;;;;;;2.63;1.08;;;11.60;99.90;;;;;;4991721;28;20426;-75
2022/10/01 04:32:27;;;;;;;1.50;0.82;;;11.60;99.90;;;;;;4992129;28;20077;-74
2022/10/01 04:34:53;;;;;;;3.17;1.05;;;11.60;99.90;;;;;;4993350;28;20110;-75
2022/10/01 04:37:20;;;;;;;1.35;0.90;;;11.70;99.90;;;;;;4991490;28;20038;-74
2022/10/01 04:39:46;;;;;;;1.30;0.95;;;11.70;99.90;;;;;;4993257;28;20034;-74
2022/10/01 04:42:14;;;;;;;1.33;0.70;;;11.70;99.90;;;;;;4991551;28;20150;-74
2022/10/01 04:44:40;;;;;;;1.25;0.70;;;11.70;99.90;;;;;;4991977;28;20030;-75
2022/10/01 04:47:07;;;;;;;2.42;0.90;;;11.70;99.90;;;;;;4996493;28;20040;-75
2022/10/01 04:49:33;;;;;;;2.25;0.90;;;11.80;99.90;;;;;;4995565;28;20077;-74
2022/10/01 04:52:02;;;;;;;1.15;0.60;;;11.80;99.90;;;;;;4995722;28;20026;-75
2022/10/01 04:54:28;;;;;;;3.35;0.98;;;11.80;99.90;;;;;;4996115;28;20085;-74
2022/10/01 04:56:54;;;;;;;1.80;0.95;;;11.70;99.90;;;;;;4995850;28;20031;-74
2022/10/01 04:59:20;;;;;;;3.00;0.93;;;11.70;99.90;;;;;;4996561;28;20034;-74
2022/10/01 05:01:45;;;;;;;1.10;1.00;;;11.70;99.90;;;;;;4997141;28;20026;-74
2022/10/01 05:04:11;;;;;;;1.33;0.88;;;11.70;99.90;;;;;;4995142;28;20034;-75
2022/10/01 05:06:37;;;;;;;2.20;0.75;;;11.60;99.90;;;;;;4995721;28;20026;-74
2022/10/01 05:09:03;;;;;;;1.20;0.77;;;11.60;99.90;;;;;;4995158;28;20085;-75
2022/10/01 05:11:29;;;;;;;1.38;0.80;;;11.50;99.90;;;;;;4997007;28;20042;-75
2022/10/01 05:13:55;;;;;;;1.45;0.90;;;11.60;99.90;;;;;;4995563;28;20030;-74
2022/10/01 05:16:20;;;;;;;1.27;0.70;;;11.50;99.90;;;;;;4995017;28;20034;-74
2022/10/01 05:18:46;;;;;;;2.15;1.02;;;11.40;99.90;;;;;;4996440;28;20066;-74
2022/10/01 05:21:14;;;;;;;1.83;0.90;;;11.40;99.90;;;;;;4996304;28;20085;-75
2022/10/01 05:23:40;;;;;;;2.13;0.98;;;11.40;99.90;;;;;;4995260;28;20148;-74
2022/10/01 05:26:06;;;;;;;2.88;0.90;;;11.40;99.90;;;;;;4996048;28;20044;-75
2022/10/01 05:28:33;;;;;;;2.10;0.80;;;11.40;99.90;;;;;;4996850;28;20030;-74
2022/10/01 05:31:00;;;;;;;1.25;0.95;;;11.30;99.90;;;;;;4995909;28;20029;-76
2022/10/01 05:33:27;;;;;;;1.95;1.10;;;11.30;99.90;;;;;;4996474;28;20034;-75
2022/10/01 05:35:52;;;;;;;1.25;0.80;;;11.30;99.90;;;;;;4996536;28;20105;-75
2022/10/01 05:38:18;;;;;;;5.13;1.00;;;11.30;99.90;;;;;;4995624;28;20317;-75
2022/10/01 05:40:45;;;;;;;5.68;1.05;;;11.30;99.90;;;;;;4995959;28;20030;-75
2022/10/01 05:43:11;;;;;;;1.13;0.90;;;11.30;99.90;;;;;;4994431;28;20045;-75
2022/10/01 05:45:36;;;;;;;1.85;1.13;;;11.30;99.90;;;;;;4996244;28;20467;-75
2022/10/01 05:48:05;;;;;;;1.60;1.10;;;11.30;99.90;;;;;;4994466;28;20030;-74
2022/10/01 05:50:33;;;;;;;2.30;1.33;;;11.30;99.90;;;;;;4991188;28;20408;-75
2022/10/01 05:53:00;;;;;;;4.13;1.00;;;11.30;99.90;;;;;;4991617;28;20551;-75
2022/10/01 05:55:30;;;;;;;2.13;1.20;;;11.30;99.90;;;;;;4991521;28;20030;-75
2022/10/01 05:57:58;;;;;;;1.83;0.98;;;11.30;99.90;;;;;;4991459;28;20487;-75
2022/10/01 06:00:27;;;;;;;2.50;1.10;;;11.30;99.90;;;;;;4991049;28;20057;-74
2022/10/01 06:02:52;;;;;;;2.50;1.08;;;11.30;99.90;;;;;;4991550;28;20027;-74
2022/10/01 06:05:19;;;;;;;1.70;1.05;;;11.30;99.90;;;;;;4990925;28;20399;-75
2022/10/01 06:07:44;;;;;;;2.22;1.00;;;11.30;99.90;;;;;;4991451;28;20078;-75
2022/10/01 06:10:10;;;;;;;1.50;0.70;;;11.30;99.90;;;;;;4975458;28;20034;-75
2022/10/01 06:12:35;;;;;;;1.58;0.90;;;11.30;99.90;;;;;;4991420;28;20058;-74
2022/10/01 06:15:01;;;;;;;1.27;0.90;;;11.30;99.90;;;;;;4990782;28;20043;-79
2022/10/01 06:17:26;;;;;;;1.67;0.75;;;11.30;99.90;;;;;;4991211;28;20054;-75
2022/10/01 06:19:52;;;;;;;0.88;0.80;;;11.30;99.90;;;;;;4976220;28;20054;-75
2022/10/01 06:22:18;;;;;;;5.93;1.15;;;11.30;99.90;;;;;;4990776;28;20085;-75
2022/10/01 06:24:43;;;;;;;2.30;1.00;;;11.30;99.90;;;;;;4990930;28;20089;-75
2022/10/01 06:27:10;;;;;;;1.63;0.90;;;11.30;99.90;;;;;;4990415;28;20030;-75
2022/10/01 06:29:36;;;;;;;2.00;0.88;;;11.30;99.90;;;;;;4991126;28;20037;-74
2022/10/01 06:32:01;;;;;;;1.15;0.82;;;11.30;99.90;;;;;;4974779;28;20113;-74
2022/10/01 06:34:27;;;;;;;3.22;1.10;;;11.30;99.90;;;;;;4990237;28;20444;-75
2022/10/01 06:36:52;;;;;;;2.28;1.13;;;11.30;99.90;;;;;;4991005;28;20034;-74
2022/10/01 06:39:18;;;;;;;0.88;0.88;;;11.30;99.90;;;;;;4975374;28;20492;-74
2022/10/01 06:41:46;;;;;;;2.33;1.10;;;11.30;99.90;;;;;;4990764;28;20042;-75
2022/10/01 06:44:11;;;;;;;1.70;1.00;;;11.30;99.90;;;;;;4990130;28;20542;-75
2022/10/01 06:46:37;;;;;;;2.03;1.08;;;11.30;99.90;;;;;;4990686;28;20031;-75
2022/10/01 06:49:03;;;;;;;1.92;0.80;;;11.30;99.90;;;;;;4992167;28;20487;-75
2022/10/01 06:54:13;;;;;;;2.05;1.17;;;11.30;99.90;;;;;;4994478;28;20041;-75
2022/10/01 06:56:39;;;;;;;3.17;1.08;;;11.30;99.90;;;;;;4993523;28;20060;-74
2022/10/01 06:59:04;;;;;;;2.25;1.40;;;11.30;99.90;;;;;;4993051;28;20034;-75
2022/10/01 07:01:31;;;;;;;2.47;1.13;;;11.20;99.90;;;;;;4993536;28;20062;-75
2022/10/01 07:03:58;;;;;;;1.38;1.10;;;11.30;99.90;;;;;;4993483;28;20419;-75
2022/10/01 07:06:24;;;;;;;1.80;1.13;;;11.30;99.90;;;;;;4992934;28;20034;-75
2022/10/01 07:08:50;;;;;;;2.08;1.20;;;11.30;99.90;;;;;;4992554;28;20030;-75
2022/10/01 07:11:16;;;;;;;1.83;1.23;;;11.20;99.90;;;;;;4992819;28;20394;-75
2022/10/01 07:13:41;;;;;;;2.75;1.13;;;11.30;99.90;;;;;;4993456;28;20494;-75
2022/10/01 07:16:07;;;;;;;2.45;1.02;;;11.30;99.90;;;;;;4993902;28;20030;-74
2022/10/01 07:18:32;;;;;;;1.83;1.30;;;11.30;99.90;;;;;;4993881;28;20053;-74
2022/10/01 07:20:58;;;;;;;3.15;1.20;;;11.30;99.90;;;;;;4993145;28;20460;-75
2022/10/01 07:23:24;;;;;;;2.28;1.13;;;11.30;99.90;;;;;;4993673;28;20041;-75
2022/10/01 07:25:49;;;;;;;1.90;1.10;;;11.30;99.90;;;;;;4994277;28;20030;-75
2022/10/01 07:28:18;;;;;;;0.90;0.82;;;11.30;99.90;;;;;;4992545;28;20029;-75
2022/10/01 07:31:02;;;;;;;2.45;1.10;;;11.30;99.90;;;;;;4992977;28;20479;-75
2022/10/01 07:33:28;;;;;;;1.50;0.93;;;11.30;99.90;;;;;;4992503;28;20034;-75
2022/10/01 07:35:54;;;;;;;1.52;1.00;;;11.40;99.90;;;;;;4992895;28;20376;-74
2022/10/01 07:38:19;;;;;;;3.20;1.00;;;11.40;99.90;;;;;;4992205;28;20026;-75
2022/10/01 07:40:54;;;;;;;2.13;1.00;;;11.40;99.90;;;;;;4992600;28;20053;-75
2022/10/01 07:43:20;;;;;;;2.85;1.30;;;11.40;99.90;;;;;;4992102;28;20387;-74
2022/10/01 07:45:46;;;;;;;5.38;1.10;;;11.50;99.90;;;;;;4992641;28;20346;-74
2022/10/01 07:48:13;;;;;;;1.40;0.95;;;11.40;99.90;;;;;;4993418;28;20023;-75
2022/10/01 07:50:42;;;;;;;1.70;1.00;;;11.50;99.90;;;;;;4992363;28;20050;-74
2022/10/01 07:53:07;;;;;;;2.40;0.90;;;11.50;99.90;;;;;;4993204;28;20113;-76
2022/10/01 07:55:33;;;;;;;2.78;1.25;;;11.50;99.90;;;;;;4992174;28;20117;-75
2022/10/01 07:58:00;;;;;;;2.80;1.60;;;11.60;99.90;;;;;;4993701;28;20027;-74
2022/10/01 08:00:28;;;;;;;1.30;1.00;;;11.50;99.90;;;;;;4991589;28;20030;-75
2022/10/01 08:02:55;;;;;;;2.28;1.10;;;11.50;99.90;;;;;;4993661;28;20030;-74
2022/10/01 08:05:26;;;;;;;1.63;0.80;;;11.50;99.90;;;;;;4991700;28;20128;-75
2022/10/01 08:07:52;;;;;;;1.93;0.93;;;11.50;99.90;;;;;;4992428;28;20029;-74
2022/10/01 08:10:19;;;;;;;1.33;1.02;;;11.40;99.90;;;;;;4991820;28;20084;-75
2022/10/01 08:12:45;;;;;;;1.92;0.88;;;11.50;99.90;;;;;;4992361;28;20122;-74
2022/10/01 08:15:12;;;;;;;1.30;0.90;;;11.40;99.90;;;;;;4991760;28;20124;-75
2022/10/01 08:17:38;;;;;;;2.05;1.23;;;11.50;99.90;;;;;;4993409;28;20470;-75
2022/10/01 08:20:05;;;;;;;2.03;1.00;;;11.40;99.90;;;;;;4992134;28;20062;-74
2022/10/01 08:22:31;;;;;;;1.25;1.05;;;11.40;99.90;;;;;;4991474;28;20471;-74
2022/10/01 08:24:57;;;;;;;3.15;0.82;;;11.30;99.90;;;;;;4993024;28;20487;-74
2022/10/01 08:27:24;;;;;;;2.95;0.90;;;11.40;99.90;;;;;;4991590;28;20058;-75
2022/10/01 08:29:50;;;;;;;2.17;0.95;;;11.40;99.90;;;;;;4993167;28;20113;-75
2022/10/01 08:32:15;;;;;;;2.20;0.90;;;11.40;99.90;;;;;;4991484;28;20120;-75
2022/10/01 08:34:41;;;;;;;3.45;1.02;;;11.40;99.90;;;;;;4992916;28;20046;-74
2022/10/01 08:37:06;;;;;;;2.35;0.98;;;11.40;99.90;;;;;;4991902;28;20122;-75
2022/10/01 08:39:32;;;;;;;3.20;1.00;;;11.40;99.90;;;;;;4991170;28;20030;-75
2022/10/01 08:42:32;;;;;;;1.33;1.00;;;11.30;99.90;;;;;;4991845;28;20034;-75
2022/10/01 08:45:03;;;;;;;2.30;1.10;;;11.40;99.90;;;;;;4993014;28;20038;-74
2022/10/01 08:47:33;;;;;;;1.20;0.90;;;11.40;99.90;;;;;;4991456;28;20030;-75
2022/10/01 08:50:10;;;;;;;2.00;1.10;;;11.40;99.90;;;;;;4988408;28;20224;-75
2022/10/01 08:52:45;;;;;;;1.77;1.30;;;11.30;99.90;;;;;;4988406;28;20030;-75
2022/10/01 08:55:25;;;;;;;1.13;0.90;;;11.40;99.90;;;;;;4973755;28;20352;-78
2022/10/01 08:57:57;;;;;;;1.52;1.10;;;11.30;99.90;;;;;;4988608;28;20023;-74
2022/10/01 09:00:22;;;;;;;3.17;1.10;;;11.30;99.90;;;;;;4972915;28;20495;-75
2022/10/01 09:02:49;;;;;;;3.03;0.90;;;11.40;99.90;;;;;;4988635;28;20035;-74
2022/10/01 09:05:30;;;;;;;1.23;1.02;;;11.30;99.90;;;;;;4988010;28;20101;-75
2022/10/01 09:08:42;;;;;;;1.58;0.90;;;11.40;99.90;;;;;;4988660;28;20026;-74
2022/10/01 09:11:26;;;;;;;1.23;0.88;;;11.40;99.90;;;;;;4932876;29;20421;-74
2022/10/01 09:14:18;;;;;;;2.40;1.08;;;11.40;99.90;;;;;;4971605;28;20031;-74
2022/10/01 09:16:43;;;;;;;;;;;11.30;99.90;;;;;;4973810;28;20475;-74
2022/10/01 09:19:15;;;;;;;1.67;1.20;;;11.30;99.90;;;;;;4973467;28;20383;-75
2022/10/01 09:21:52;;;;;;;3.60;1.73;;;11.30;99.90;;;;;;4972150;28;20365;-74
2022/10/01 09:24:20;;;;;;;1.95;1.08;;;11.30;99.90;;;;;;4971576;28;20039;-74
2022/10/01 09:26:47;;;;;;;2.78;1.20;;;11.30;99.90;;;;;;4973142;28;20365;-75
2022/10/01 09:29:18;;;;;;;3.55;1.10;;;11.30;99.90;;;;;;4972772;28;20027;-76
2022/10/01 09:31:47;;;;;;;2.50;1.27;;;11.30;99.90;;;;;;4990049;28;20027;-76
2022/10/01 09:34:26;;;;;;;2.22;1.10;;;11.30;99.90;;;;;;4991592;28;20035;-79
2022/10/01 09:37:06;;;;;;;1.48;0.95;;;11.30;99.90;;;;;;4976939;28;20026;-75
2022/10/01 09:40:00;;;;;;;2.22;1.00;;;11.30;99.90;;;;;;4974980;28;20420;-74
2022/10/01 09:42:28;;;;;;;1.27;0.80;;;11.30;99.90;;;;;;4991374;28;20037;-75
2022/10/01 09:44:55;;;;;;;4.57;1.23;;;11.30;99.90;;;;;;4976664;28;20032;-74
2022/10/01 09:47:24;;;;;;;3.85;0.90;;;11.40;99.90;;;;;;4976285;28;20034;-75
2022/10/01 09:49:50;;;;;;;1.67;0.98;;;11.40;99.90;;;;;;4991272;28;20055;-74
2022/10/01 09:52:32;;;;;;;1.23;0.70;;;11.40;99.90;;;;;;4976117;28;20451;-75
2022/10/01 09:55:00;;;;;;;1.83;0.90;;;11.50;99.90;;;;;;4976652;28;20035;-75
2022/10/01 09:57:45;;;;;;;2.85;0.80;;;11.50;99.90;;;;;;4975645;28;20038;-75
2022/10/01 10:00:17;;;;;;;2.38;0.90;;;11.60;99.90;;;;;;4991365;28;20026;-74
2022/10/01 10:02:47;;;;;;;1.17;0.90;;;11.80;99.90;;;;;;4991359;28;20023;-74
2022/10/01 10:05:17;;;;;;;2.47;0.97;;;11.90;99.90;;;;;;4976031;28;20468;-75
2022/10/01 10:07:52;;;;;;;3.38;1.10;;;11.90;99.90;;;;;;4991239;28;20027;-74
2022/10/01 10:10:19;;;;;;;1.63;0.90;;;12.00;99.90;;;;;;4975198;28;20488;-75
2022/10/01 10:12:46;;;;;;;1.67;0.80;;;12.00;99.90;;;;;;4990715;28;20026;-74
2022/10/01 10:15:20;;;;;;;1.50;0.90;;;12.00;99.90;;;;;;4990628;28;20038;-74
2022/10/01 10:17:50;;;;;;;1.90;1.30;;;11.90;99.90;;;;;;4990652;28;20114;-74
2022/10/01 10:20:34;;;;;;;4.05;1.17;;;12.00;99.90;;;;;;4975474;28;20046;-78
2022/10/01 10:23:15;;;;;;;1.17;0.98;;;12.00;99.90;;;;;;4990630;28;20041;-75
2022/10/01 10:25:41;;;;;;;2.25;0.98;;;12.10;99.90;;;;;;4990511;28;20046;-74
2022/10/01 10:28:20;;;;;;;1.33;1.13;;;12.10;99.90;;;;;;4975579;28;20039;-74
2022/10/01 10:30:46;;;;;;;0.93;0.70;;;12.20;99.90;;;;;;4990359;28;20468;-75
2022/10/01 10:33:13;;;;;;;1.45;0.75;;;12.20;99.90;;;;;;4990384;28;20065;-74
2022/10/01 10:35:39;;;;;;;2.08;0.95;;;12.30;99.90;;;;;;4989527;28;20038;-74
2022/10/01 10:38:05;;;;;;;1.50;0.88;;;12.30;99.90;;;;;;4975390;28;20070;-75
2022/10/01 10:40:49;;;;;;;1.05;0.77;;;12.30;99.90;;;;;;4989728;28;20412;-75
2022/10/01 10:43:24;;;;;;;2.88;1.00;;;12.30;99.90;;;;;;4989712;28;20027;-75
2022/10/01 10:45:54;;;;;;;1.70;0.90;;;12.30;99.90;;;;;;4990662;28;20054;-74
2022/10/01 10:48:28;;;;;;;2.83;0.73;;;12.30;99.90;;;;;;4990081;28;20035;-75
2022/10/01 10:51:00;;;;;;;1.30;0.80;;;12.30;99.90;;;;;;4990302;28;20404;-75
2022/10/01 10:53:27;;;;;;;1.20;0.73;;;12.30;99.90;;;;;;4989717;28;20041;-75
2022/10/01 10:56:02;;;;;;;1.00;0.73;;;12.30;99.90;;;;;;4990078;28;20027;-74
2022/10/01 10:58:33;;;;;;;3.65;1.63;;;12.30;99.90;;;;;;4989529;28;20037;-74
2022/10/01 11:01:05;;;;;;;3.47;1.00;;;12.30;99.90;;;;;;4990584;28;20420;-75
2022/10/01 11:03:31;;;;;;;2.58;0.90;;;12.30;99.90;;;;;;4974792;28;20388;-75
2022/10/01 11:06:03;;;;;;;1.65;1.17;;;12.30;99.90;;;;;;4990199;28;20143;-75
2022/10/01 11:08:30;;;;;;;1.73;0.95;;;12.30;99.90;;;;;;4989864;28;20171;-74
2022/10/01 11:11:11;;;;;;;3.50;0.90;;;12.20;99.90;;;;;;4975411;28;20030;-75
2022/10/01 11:13:43;;;;;;;1.23;0.73;;;12.20;99.90;;;;;;4973546;28;20134;-74
2022/10/01 11:16:36;;;;;;;1.02;0.80;;;12.20;99.90;;;;;;4973814;28;20316;-74
2022/10/01 11:19:20;;;;;;;1.17;0.80;;;12.20;99.90;;;;;;4973913;28;20177;-74
2022/10/01 11:22:07;;;;;;;1.20;0.77;;;12.20;99.90;;;;;;4973763;28;20046;-75
2022/10/01 11:24:58;;;;;;;1.75;0.85;;;12.20;99.90;;;;;;4974408;28;20118;-74
2022/10/01 11:27:31;;;;;;;1.42;1.00;;;12.20;99.90;;;;;;4989457;28;20433;-75
2022/10/01 11:30:02;;;;;;;1.25;0.80;;;12.30;99.90;;;;;;4973629;28;20027;-74
2022/10/01 11:32:37;;;;;;;0.52;0.52;;;12.30;99.90;;;;;;4974111;28;20416;-75
2022/10/01 11:35:11;;;;;;;0.88;0.60;;;12.40;99.90;;;;;;4974780;28;20058;-75
2022/10/01 11:37:58;;;;;;;2.33;0.80;;;12.40;99.90;;;;;;4972841;28;20034;-75
2022/10/01 11:40:31;;;;;;;1.08;0.70;;;12.40;99.90;;;;;;4972965;28;20030;-73
2022/10/01 11:43:04;;;;;;;0.50;0.50;;;12.40;99.90;;;;;;4973327;28;20047;-72
2022/10/01 11:45:39;;;;;;;3.25;0.68;;;12.50;99.90;;;;;;4988702;28;20031;-73
2022/10/01 11:48:11;;;;;;;0.90;0.70;;;12.50;99.90;;;;;;4989686;28;20031;-72
2022/10/01 11:50:45;;;;;;;1.35;0.93;;;12.60;99.90;;;;;;4988873;28;20370;-72
2022/10/01 11:53:31;;;;;;;0.80;0.70;;;12.70;99.90;;;;;;4974760;28;20061;-72
2022/10/01 11:59:28;;;;;;;1.38;0.77;;;12.90;99.90;;;;;;4974434;28;20038;-74
2022/10/01 12:02:30;;;;;;;1.05;0.60;;;13.00;99.90;;;;;;4944468;28;20062;-74
2022/10/01 12:05:17;;;;;;;1.20;0.40;;;13.00;99.90;;;;;;4989515;28;20030;-74
2022/10/01 12:07:48;;;;;;;1.45;0.57;;;13.00;99.90;;;;;;4973889;28;20508;-74
2022/10/01 12:10:39;;;;;;;1.45;0.40;;;13.10;99.90;;;;;;4974339;28;20412;-75
2022/10/01 12:13:31;;;;;;;1.25;0.55;;;13.10;99.90;;;;;;4973992;28;20152;-75
2022/10/01 12:16:07;;;;;;;1.00;0.50;;;13.20;99.90;;;;;;4974351;28;20027;-75
2022/10/01 12:18:50;;;;;;;1.10;0.45;;;13.20;99.90;;;;;;4988740;28;20031;-75
2022/10/01 12:21:22;;;;;;;1.00;0.43;;;13.20;99.90;;;;;;4989011;28;20493;-74
2022/10/01 12:24:02;;;;;;;2.45;0.82;;;13.20;99.90;;;;;;4988487;28;20031;-75
2022/10/01 12:26:53;;;;;;;4.72;1.58;;;13.20;99.90;;;;;;4973663;28;20044;-75
2022/10/01 12:29:27;;;;;;;1.80;0.80;;;13.30;99.90;;;;;;4972410;28;20078;-72
2022/10/01 12:32:17;;;;;;;1.05;0.75;;;13.30;99.90;;;;;;4974051;28;20023;-74
2022/10/01 12:35:12;;;;;;;1.65;0.63;;;13.30;99.90;;;;;;4973462;28;20031;-74
2022/10/01 12:38:07;;;;;;;0.60;0.50;;;13.40;99.90;;;;;;4961787;28;20062;-74
2022/10/01 12:41:02;;;;;;;2.30;0.35;;;13.50;99.90;;;;;;4988370;28;20380;-74
2022/10/01 12:43:43;;;;;;;0.55;0.32;;;13.60;99.90;;;;;;4988194;28;20037;-75
2022/10/01 12:46:31;;;;;;;0.73;0.30;;;13.60;99.90;;;;;;4972722;28;20384;-75
2022/10/01 12:49:14;;;;;;;0.75;0.40;;;13.70;99.90;;;;;;4989499;28;20483;-75
2022/10/01 12:51:55;;;;;;;1.55;0.50;;;13.80;99.90;;;;;;4992572;28;20039;-75
2022/10/01 12:54:45;;;;;;;0.28;0.28;;;13.90;99.90;;;;;;4991872;28;20035;-75
2022/10/01 12:57:21;;;;;;;1.45;0.65;;;14.10;99.90;;;;;;4991776;28;20081;-75
2022/10/01 13:00:00;;;;;;;1.02;0.20;;;14.20;99.90;;;;;;4975102;28;20026;-75
2022/10/01 13:02:30;;;;;;;0.77;0.20;;;14.30;99.90;;;;;;4991391;28;20033;-76
2022/10/01 13:04:55;;;;;;;0.85;0.40;;;14.30;99.90;;;;;;4993000;28;20117;-75
2022/10/01 13:07:45;;;;;;;0.60;0.30;;;15.10;99.90;;;;;;4978576;28;20061;-75
2022/10/01 13:10:46;;;;;;;3.30;0.30;;;16.20;99.90;;;;;;4979454;28;20062;-75
2022/10/01 13:13:20;;;;;;;0.73;0.35;;;16.00;99.90;;;;;;4996899;28;20418;-75
2022/10/01 13:15:51;;;;;;;1.85;0.32;;;16.00;99.90;;;;;;4996023;28;20333;-75